Time;durP1;ratioP1;P1;durP2;ratioP2;P2;SDS_P1;SDS_P2;PMS_P1;PMS_P2;Temp;Humidity;BMP_temperature;BMP_pressure;BME280_temperature;BME280_humidity;BME280_pressure;Samples;Min_cycle;Max_cycle;Signal;HPM_P1;HPM_P2
2021/06/24 00:02:19;;;;;;;25.73;7.63;;;;;;;23.04;61.71;98881.78;5114053;28;20035;-91
2021/06/24 00:04:47;;;;;;;29.65;8.63;;;;;;;23.05;62.04;98874.50;5123412;28;20146;-91
2021/06/24 00:07:12;;;;;;;31.08;8.45;;;;;;;23.17;62.25;98877.13;5119036;28;20400;-91
2021/06/24 00:09:38;;;;;;;29.23;8.02;;;;;;;23.20;62.01;98876.03;5104833;28;20036;-91
2021/06/24 00:12:05;;;;;;;39.67;9.30;;;;;;;23.11;61.94;98858.59;5104716;28;20056;-91
2021/06/24 00:14:31;;;;;;;34.42;9.57;;;;;;;23.09;62.44;98848.88;5108291;28;20096;-91
2021/06/24 00:16:56;;;;;;;28.25;9.13;;;;;;;23.02;62.95;98847.63;5106370;28;20035;-90
2021/06/24 00:19:23;;;;;;;28.83;9.20;;;;;;;22.97;63.09;98842.53;5109447;28;20036;-91
2021/06/24 00:21:50;;;;;;;34.72;8.70;;;;;;;23.10;63.48;98864.19;5105358;28;20413;-89
2021/06/24 00:24:16;;;;;;;31.25;8.73;;;;;;;23.10;63.26;98858.75;5105457;28;20032;-92
2021/06/24 00:26:41;;;;;;;33.30;7.82;;;;;;;23.07;63.54;98853.53;5114607;27;20036;-91
2021/06/24 00:29:07;;;;;;;27.88;9.00;;;;;;;23.22;63.28;98859.63;5113415;27;20032;-90
2021/06/24 00:31:33;;;;;;;32.97;9.10;;;;;;;23.15;63.03;98842.97;5107923;28;20048;-89
2021/06/24 00:33:59;;;;;;;37.10;9.75;;;;;;;23.22;63.44;98854.22;5109879;28;20519;-91
2021/06/24 00:36:25;;;;;;;25.83;8.05;;;;;;;23.11;63.60;98839.63;5102123;28;20044;-90
2021/06/24 00:38:52;;;;;;;31.45;9.50;;;;;;;23.13;63.97;98853.94;5105384;28;20036;-89
2021/06/24 00:41:18;;;;;;;35.65;8.90;;;;;;;23.07;64.29;98846.25;5103776;28;20043;-91
2021/06/24 00:43:44;;;;;;;31.95;8.88;;;;;;;23.00;64.49;98850.44;5107752;28;20042;-90
2021/06/24 00:46:10;;;;;;;34.25;8.52;;;;;;;22.97;64.68;98840.66;5105310;27;20055;-90
2021/06/24 00:48:36;;;;;;;30.90;9.82;;;;;;;22.96;64.82;98846.19;5107739;28;20055;-89
2021/06/24 00:51:01;;;;;;;30.08;9.00;;;;;;;22.94;65.21;98848.16;5109207;28;20042;-91
2021/06/24 00:53:27;;;;;;;36.00;9.50;;;;;;;22.84;65.90;98831.75;5107953;28;20040;-89
2021/06/24 00:55:56;;;;;;;28.23;9.82;;;;;;;22.66;65.88;98811.44;5110462;28;20035;-91
2021/06/24 00:58:25;;;;;;;27.60;8.55;;;;;;;22.71;66.08;98831.81;5103256;28;20044;-90
2021/06/24 01:00:53;;;;;;;27.25;9.60;;;;;;;22.63;66.75;98830.69;5100659;28;20050;-90
2021/06/24 01:03:20;;;;;;;30.17;9.40;;;;;;;22.48;67.27;98817.28;5107756;28;20531;-92
2021/06/24 01:05:47;;;;;;;32.80;9.27;;;;;;;22.48;67.12;98820.00;5104519;28;20040;-91
2021/06/24 01:11:06;;;;;;;35.13;9.45;;;;;;;22.38;67.54;98818.09;5090261;27;20378;-89
2021/06/24 01:13:33;;;;;;;32.95;10.15;;;;;;;22.39;67.59;98819.84;5089885;28;20045;-88
2021/06/24 01:15:58;;;;;;;36.50;9.43;;;;;;;22.39;67.96;98818.00;5087933;28;20046;-89
2021/06/24 01:18:25;;;;;;;35.17;9.63;;;;;;;22.32;67.93;98798.63;5089880;28;20040;-90
2021/06/24 01:20:51;;;;;;;35.67;9.88;;;;;;;22.38;67.76;98824.41;5088720;28;20036;-89
2021/06/24 01:23:16;;;;;;;26.63;9.50;;;;;;;22.40;67.72;98813.44;5089206;28;20044;-90
2021/06/24 01:25:44;;;;;;;40.42;10.50;;;;;;;22.39;67.68;98814.41;5089364;28;20570;-88
2021/06/24 01:28:11;;;;;;;25.75;8.63;;;;;;;22.40;67.44;98824.25;5089700;28;20123;-88
2021/06/24 01:30:39;;;;;;;34.35;10.23;;;;;;;22.42;67.67;98819.59;5087682;28;20439;-88
2021/06/24 01:33:07;;;;;;;29.83;8.87;;;;;;;22.38;67.50;98815.38;5088235;28;20044;-90
2021/06/24 01:35:33;;;;;;;36.90;9.45;;;;;;;22.41;67.70;98807.91;5089758;28;20044;-88
2021/06/24 01:38:01;;;;;;;32.67;9.70;;;;;;;22.33;67.75;98803.03;5089685;28;20482;-90
2021/06/24 01:40:30;;;;;;;29.20;8.68;;;;;;;22.27;67.87;98795.41;5089591;28;20044;-88
2021/06/24 01:42:58;;;;;;;28.23;9.70;;;;;;;22.35;68.32;98814.63;5089526;28;20032;-88
2021/06/24 01:45:24;;;;;;;24.55;9.30;;;;;;;22.34;68.33;98809.34;5087604;28;20062;-89
2021/06/24 01:47:50;;;;;;;35.30;9.80;;;;;;;22.17;68.92;98785.34;5089324;28;20050;-89
2021/06/24 01:50:16;;;;;;;31.73;10.10;;;;;;;22.25;68.45;98813.63;5089449;28;20104;-89
2021/06/24 01:52:44;;;;;;;35.45;9.60;;;;;;;22.23;68.64;98809.25;5089052;28;20119;-90
2021/06/24 01:55:12;;;;;;;33.42;10.40;;;;;;;22.11;69.09;98783.94;5089231;28;20041;-88
2021/06/24 01:57:40;;;;;;;33.20;10.13;;;;;;;21.91;69.67;98780.84;5087235;28;20548;-89
2021/06/24 02:00:10;;;;;;;32.15;10.50;;;;;;;21.93;70.24;98802.41;5086866;28;20071;-88
2021/06/24 02:02:36;;;;;;;29.08;10.55;;;;;;;21.90;69.76;98789.97;5088796;28;20560;-90
2021/06/24 02:05:03;;;;;;;35.63;11.95;;;;;;;21.84;70.22;98789.53;5088965;28;20033;-88
2021/06/24 02:07:29;;;;;;;34.78;10.63;;;;;;;21.79;70.71;98791.72;5088742;28;20036;-88
2021/06/24 02:09:55;;;;;;;33.05;10.02;;;;;;;21.66;71.00;98772.78;5088211;28;20085;-89
2021/06/24 02:12:21;;;;;;;32.75;10.00;;;;;;;21.68;70.91;98781.66;5089086;28;20040;-89
2021/06/24 02:14:47;;;;;;;35.38;10.82;;;;;;;21.66;70.93;98780.91;5088860;28;20048;-88
2021/06/24 02:17:14;;;;;;;36.20;10.15;;;;;;;21.50;71.32;98757.69;5086307;28;20044;-89
2021/06/24 02:19:40;;;;;;;40.80;10.50;;;;;;;21.62;71.47;98777.59;5084906;28;20037;-88
2021/06/24 02:22:06;;;;;;;33.38;10.23;;;;;;;21.51;71.40;98762.13;5077158;28;20555;-90
2021/06/24 02:24:31;;;;;;;34.83;10.95;;;;;;;21.56;71.28;98766.31;5075481;28;20059;-89
2021/06/24 02:26:57;;;;;;;24.05;9.80;;;;;;;21.37;72.04;98751.38;5075165;28;20089;-89
2021/06/24 02:29:23;;;;;;;24.27;9.90;;;;;;;21.41;72.27;98758.34;5075389;28;20135;-89
2021/06/24 02:31:48;;;;;;;32.80;11.07;;;;;;;21.29;72.40;98757.34;5073605;28;20036;-89
2021/06/24 02:34:18;;;;;;;29.77;11.00;;;;;;;21.29;72.74;98764.59;5075169;28;20040;-90
2021/06/24 02:36:44;;;;;;;32.88;11.52;;;;;;;21.22;72.78;98755.19;5074827;28;20037;-88
2021/06/24 02:39:10;;;;;;;32.13;10.32;;;;;;;21.25;72.48;98753.16;5075214;28;20591;-89
2021/06/24 02:41:36;;;;;;;32.50;10.90;;;;;;;21.22;72.82;98753.34;5075072;28;20032;-90
2021/06/24 02:44:02;;;;;;;28.30;11.35;;;;;;;21.23;73.55;98765.91;5075316;28;20036;-90
2021/06/24 02:46:28;;;;;;;33.75;10.75;;;;;;;21.10;73.13;98751.50;5072791;28;20040;-89
2021/06/24 02:48:53;;;;;;;34.58;11.32;;;;;;;20.98;74.38;98747.84;5074236;28;20102;-87
2021/06/24 02:51:21;;;;;;;40.30;11.98;;;;;;;21.00;74.17;98753.13;5074866;28;20043;-89
2021/06/24 02:53:46;;;;;;;34.75;11.15;;;;;;;21.01;74.39;98754.84;5074972;28;20761;-90
2021/06/24 02:56:12;;;;;;;31.48;10.75;;;;;;;21.18;74.02;98759.09;5074758;28;20040;-88
2021/06/24 02:58:39;;;;;;;34.67;10.68;;;;;;;21.18;73.85;98754.53;5074596;28;20561;-90
2021/06/24 03:01:05;;;;;;;26.60;11.20;;;;;;;21.29;73.17;98751.06;5072447;28;20063;-89
2021/06/24 03:03:30;;;;;;;33.42;11.07;;;;;;;21.27;73.49;98748.47;5073734;28;20060;-90
2021/06/24 03:05:56;;;;;;;32.45;11.13;;;;;;;21.30;73.11;98759.06;5074060;28;20063;-90
2021/06/24 03:08:23;;;;;;;30.90;10.13;;;;;;;21.14;73.55;98734.09;5074477;28;20044;-89
2021/06/24 03:10:49;;;;;;;32.72;11.15;;;;;;;21.19;74.25;98766.22;5073779;28;20077;-89
2021/06/24 03:13:15;;;;;;;36.88;11.20;;;;;;;21.10;74.14;98755.09;5074227;28;20088;-90
2021/06/24 03:15:43;;;;;;;33.65;11.77;;;;;;;20.92;74.49;98732.03;5072239;28;20033;-87
2021/06/24 03:18:09;;;;;;;31.63;11.85;;;;;;;20.97;74.42;98751.53;5073995;28;20032;-89
2021/06/24 03:20:35;;;;;;;40.17;12.30;;;;;;;20.93;74.40;98755.41;5074216;28;20059;-89
2021/06/24 03:23:01;;;;;;;37.08;10.88;;;;;;;20.86;74.61;98745.97;5074214;28;20071;-90
2021/06/24 03:25:29;;;;;;;33.30;11.57;;;;;;;20.89;74.93;98753.88;5074202;28;20509;-89
2021/06/24 03:27:55;;;;;;;33.78;10.55;;;;;;;20.88;74.58;98757.56;5073900;28;20068;-90
2021/06/24 03:30:22;;;;;;;37.17;11.88;;;;;;;20.99;74.51;98783.84;5071862;28;20063;-88
2021/06/24 03:32:49;;;;;;;37.95;11.45;;;;;;;20.97;74.57;98783.97;5072913;28;20053;-88
2021/06/24 03:35:16;;;;;;;27.23;10.13;;;;;;;20.88;74.29;98771.06;5073824;28;20094;-88
2021/06/24 03:37:42;;;;;;;36.92;11.73;;;;;;;20.81;74.50;98773.31;5073773;28;20055;-89
2021/06/24 03:40:10;;;;;;;33.78;11.07;;;;;;;20.91;74.24;98784.38;5073606;28;20127;-89
2021/06/24 03:42:38;;;;;;;37.35;10.80;;;;;;;20.90;73.97;98771.81;5073700;28;20048;-89
2021/06/24 03:45:05;;;;;;;29.63;10.75;;;;;;;20.99;73.44;98789.25;5071402;28;20071;-89
2021/06/24 03:47:30;;;;;;;37.50;10.68;;;;;;;21.06;72.15;98790.56;5073303;28;20041;-90
2021/06/24 03:49:56;;;;;;;34.97;10.23;;;;;;;21.08;72.06;98780.50;5072972;28;20036;-90
2021/06/24 03:52:22;;;;;;;37.30;10.93;;;;;;;21.13;72.12;98792.72;5073844;28;20040;-89
2021/06/24 03:54:48;;;;;;;33.78;10.88;;;;;;;21.12;71.78;98799.13;5072787;28;20044;-88
2021/06/24 03:57:13;;;;;;;30.00;11.05;;;;;;;21.19;71.73;98810.38;5073097;28;20074;-88
2021/06/24 03:59:41;;;;;;;34.25;10.55;;;;;;;21.12;71.77;98799.13;5073233;28;20039;-89
2021/06/24 04:02:06;;;;;;;31.17;10.75;;;;;;;21.09;71.51;98793.03;5071187;28;20041;-89
2021/06/24 04:04:32;;;;;;;33.33;10.07;;;;;;;21.19;71.47;98804.06;5073483;28;20047;-88
2021/06/24 04:06:58;;;;;;;40.60;10.75;;;;;;;21.13;71.80;98806.25;5071990;28;20051;-88
2021/06/24 04:09:24;;;;;;;37.40;10.02;;;;;;;21.18;71.35;98805.06;5072632;28;20045;-88
2021/06/24 04:11:50;;;;;;;31.63;10.48;;;;;;;21.08;71.75;98785.91;5073094;28;20520;-88
2021/06/24 04:14:15;;;;;;;41.72;11.30;;;;;;;21.18;71.51;98802.34;5073262;28;20036;-88
2021/06/24 04:16:43;;;;;;;34.42;12.68;;;;;;;21.31;71.69;98816.75;5068442;28;20394;-90
2021/06/24 04:19:10;;;;;;;41.22;12.13;;;;;;;21.38;71.47;98823.44;5072927;28;20123;-89
2021/06/24 04:21:36;;;;;;;28.73;10.18;;;;;;;21.49;71.27;98826.31;5070772;28;20037;-88
2021/06/24 04:24:02;;;;;;;35.35;10.93;;;;;;;21.56;71.06;98823.13;5072703;28;20082;-89
2021/06/24 04:26:28;;;;;;;31.17;12.07;;;;;;;21.61;70.55;98812.88;5070817;28;20039;-88
2021/06/24 04:28:54;;;;;;;34.83;10.77;;;;;;;21.57;70.76;98806.81;5070203;28;20040;-90
2021/06/24 04:31:19;;;;;;;34.17;11.95;;;;;;;21.66;70.61;98816.94;5069283;28;20036;-89
2021/06/24 04:33:47;;;;;;;37.22;10.45;;;;;;;21.76;70.21;98819.03;5072730;28;20036;-88
2021/06/24 04:36:12;;;;;;;46.83;11.98;;;;;;;21.86;70.37;98826.38;5068708;28;20052;-89
2021/06/24 04:38:38;;;;;;;35.42;10.40;;;;;;;21.87;70.25;98814.53;5072682;28;20044;-89
2021/06/24 04:41:04;;;;;;;31.88;10.95;;;;;;;21.99;69.90;98820.03;5071174;28;20043;-89
2021/06/24 04:43:30;;;;;;;28.35;10.23;;;;;;;21.93;69.95;98800.56;5072386;28;20036;-88
2021/06/24 04:45:55;;;;;;;31.20;9.93;;;;;;;21.99;70.00;98801.06;5070303;28;20447;-88
2021/06/24 04:48:21;;;;;;;35.30;11.95;;;;;;;22.22;69.85;98840.91;5072493;28;20051;-89
2021/06/24 04:50:48;;;;;;;35.85;11.18;;;;;;;22.29;69.10;98831.38;5072284;28;20154;-88
2021/06/24 04:53:14;;;;;;;41.05;12.10;;;;;;;22.60;67.15;98834.50;5072358;28;20032;-91
2021/06/24 04:55:40;;;;;;;34.83;10.23;;;;;;;22.84;66.49;98831.75;5072495;28;20493;-92
2021/06/24 04:58:06;;;;;;;32.13;10.95;;;;;;;23.19;65.19;98830.03;5072505;28;20044;-92
2021/06/24 05:00:33;;;;;;;38.50;12.75;;;;;;;23.36;64.44;98830.44;5070029;28;20040;-92
2021/06/24 05:02:59;;;;;;;45.50;12.95;;;;;;;23.71;63.03;98843.06;5072513;28;20048;-91
2021/06/24 05:05:25;;;;;;;43.70;13.63;;;;;;;23.98;62.11;98847.28;5072181;28;20102;-91
2021/06/24 05:07:53;;;;;;;54.45;18.40;;;;;;;24.12;62.06;98838.88;5072078;28;20054;-91
2021/06/24 05:10:20;;;;;;;41.00;16.85;;;;;;;24.44;60.11;98845.34;5070838;28;20520;-91
2021/06/24 05:12:46;;;;;;;39.17;13.70;;;;;;;24.66;59.86;98850.78;5072162;28;20044;-93
2021/06/24 05:15:13;;;;;;;35.15;12.18;;;;;;;24.78;59.27;98832.53;5070284;28;20051;-89
2021/06/24 05:17:39;;;;;;;37.00;12.48;;;;;;;24.95;57.87;98839.28;5071885;28;20036;-91
2021/06/24 05:20:07;;;;;;;29.35;12.32;;;;;;;24.98;58.12;98839.00;5072228;28;20115;-91
2021/06/24 05:22:33;;;;;;;30.55;10.90;;;;;;;24.96;58.24;98840.97;5072756;28;20036;-92
2021/06/24 05:25:00;;;;;;;36.40;11.18;;;;;;;25.12;57.68;98844.13;5072907;28;20052;-94
2021/06/24 05:27:26;;;;;;;41.00;11.68;;;;;;;25.14;57.89;98838.56;5073051;28;20523;-92
2021/06/24 05:29:52;;;;;;;37.20;11.13;;;;;;;25.27;56.68;98835.69;5069219;28;20037;-93
2021/06/24 05:32:18;;;;;;;34.33;10.93;;;;;;;25.46;56.25;98843.06;5072856;28;20100;-94
2021/06/24 05:34:44;;;;;;;34.97;10.82;;;;;;;25.47;56.06;98851.13;5072204;28;20043;-90
2021/06/24 05:37:10;;;;;;;34.70;10.48;;;;;;;25.43;56.20;98841.50;5072481;28;20421;-90
2021/06/24 05:39:36;;;;;;;31.13;10.48;;;;;;;25.50;56.59;98850.84;5072481;28;20120;-93
2021/06/24 05:42:04;;;;;;;32.63;10.35;;;;;;;25.65;56.19;98855.94;5072453;28;20158;-93
2021/06/24 05:44:30;;;;;;;33.45;10.30;;;;;;;25.79;55.73;98844.72;5072345;28;20105;-90
2021/06/24 05:46:56;;;;;;;33.95;11.00;;;;;;;25.75;55.26;98835.09;5070444;28;20040;-92
2021/06/24 05:49:22;;;;;;;37.58;10.20;;;;;;;25.99;55.07;98864.75;5072476;28;20041;-91
2021/06/24 05:51:48;;;;;;;31.95;9.65;;;;;;;26.05;54.39;98856.03;5070968;28;20041;-92
2021/06/24 05:54:14;;;;;;;30.40;9.15;;;;;;;25.94;54.33;98843.38;5072670;28;20044;-93
2021/06/24 05:56:40;;;;;;;30.17;9.32;;;;;;;26.02;54.41;98868.06;5074259;28;20040;-91
2021/06/24 05:59:08;;;;;;;33.58;9.98;;;;;;;26.00;54.37;98858.28;5076202;28;20090;-92
2021/06/24 06:01:34;;;;;;;33.97;9.77;;;;;;;26.19;53.82;98852.91;5075272;28;20064;-92
2021/06/24 06:04:00;;;;;;;31.23;10.27;;;;;;;26.43;53.51;98868.03;5075847;28;20320;-93
2021/06/24 06:06:26;;;;;;;31.13;9.23;;;;;;;26.57;52.92;98872.28;5076650;28;20041;-91
2021/06/24 06:08:51;;;;;;;30.60;9.63;;;;;;;26.64;52.13;98863.38;5075867;28;20036;-93
2021/06/24 06:11:18;;;;;;;34.47;10.38;;;;;;;26.73;51.84;98867.13;5076268;28;20037;-92
2021/06/24 06:13:44;;;;;;;35.25;9.75;;;;;;;26.91;51.13;98878.19;5075689;28;20401;-91
2021/06/24 06:16:11;;;;;;;36.97;9.60;;;;;;;26.89;50.72;98882.97;5073418;28;20037;-90
2021/06/24 06:18:37;;;;;;;32.65;9.02;;;;;;;26.91;51.27;98885.53;5075159;28;20047;-90
2021/06/24 06:21:03;;;;;;;32.28;9.88;;;;;;;27.00;51.05;98893.72;5074980;28;20037;-93
2021/06/24 06:23:29;;;;;;;35.30;9.63;;;;;;;27.17;50.64;98915.84;5075609;28;21070;-92
2021/06/24 06:25:56;;;;;;;35.55;9.95;;;;;;;27.10;50.64;98896.44;5075621;28;20046;-92
2021/06/24 06:28:22;;;;;;;33.80;8.68;;;;;;;27.29;50.52;98892.88;5075403;28;20481;-92
2021/06/24 06:30:50;;;;;;;34.13;10.02;;;;;;;27.24;49.61;98895.19;5072975;28;20048;-91
2021/06/24 06:33:18;;;;;;;33.95;8.93;;;;;;;26.96;50.97;98885.97;5075318;28;20062;-90
2021/06/24 06:35:44;;;;;;;31.92;9.32;;;;;;;27.07;50.12;98895.88;5074902;28;20041;-92
2021/06/24 06:38:11;;;;;;;43.00;9.50;;;;;;;27.22;50.24;98911.72;5075545;28;20068;-92
2021/06/24 06:40:36;;;;;;;45.20;9.25;;;;;;;27.50;49.75;98920.03;5075401;28;20037;-91
2021/06/24 06:43:03;;;;;;;40.55;9.45;;;;;;;27.60;48.96;98926.31;5075362;28;20036;-93
2021/06/24 06:45:31;;;;;;;32.78;9.68;;;;;;;27.76;49.19;98913.94;5076172;28;20098;-92
2021/06/24 06:47:57;;;;;;;36.03;8.93;;;;;;;27.89;48.81;98910.91;5075077;28;20052;-92
2021/06/24 06:50:24;;;;;;;33.65;10.48;;;;;;;27.82;49.07;98929.75;5075184;28;20048;-91
2021/06/24 06:52:50;;;;;;;33.40;9.00;;;;;;;27.91;48.61;98926.19;5074742;28;20036;-91
2021/06/24 06:55:16;;;;;;;30.50;8.63;;;;;;;28.11;47.84;98934.31;5074539;28;20039;-90
2021/06/24 06:57:42;;;;;;;31.35;10.35;;;;;;;28.14;48.37;98940.31;5074821;28;20060;-91
2021/06/24 07:00:10;;;;;;;33.30;10.05;;;;;;;28.27;48.61;98937.25;5072594;28;20494;-91
2021/06/24 07:02:36;;;;;;;43.78;10.25;;;;;;;28.18;48.30;98932.69;5074902;28;20036;-92
2021/06/24 07:05:02;;;;;;;41.08;10.38;;;;;;;28.20;48.30;98938.88;5074129;28;20040;-92
2021/06/24 07:07:29;;;;;;;36.25;9.93;;;;;;;28.18;48.52;98924.50;5074839;28;20040;-93
2021/06/24 07:09:55;;;;;;;32.55;10.30;;;;;;;28.13;48.72;98922.22;5074677;28;20059;-92
2021/06/24 07:12:21;;;;;;;31.23;10.18;;;;;;;28.33;48.48;98919.41;5074674;28;20044;-93
2021/06/24 07:14:47;;;;;;;35.13;10.80;;;;;;;28.41;47.78;98928.56;5074826;28;20037;-93
2021/06/24 07:17:13;;;;;;;40.97;10.25;;;;;;;28.55;47.85;98931.84;5074210;28;20071;-90
2021/06/24 07:19:39;;;;;;;37.58;10.40;;;;;;;28.21;48.62;98924.19;5074244;28;20060;-93
2021/06/24 07:22:06;;;;;;;32.88;10.27;;;;;;;28.44;48.50;98943.81;5074414;28;20071;-91
2021/06/24 07:24:33;;;;;;;36.50;10.02;;;;;;;28.54;49.00;98943.78;5074892;28;20036;-94
2021/06/24 07:26:58;;;;;;;43.53;10.10;;;;;;;28.73;47.90;98940.09;5074172;28;20102;-92
2021/06/24 07:29:24;;;;;;;37.53;9.90;;;;;;;28.98;47.44;98941.22;5074256;28;20067;-92
2021/06/24 07:31:50;;;;;;;36.92;10.93;;;;;;;29.07;46.54;98941.16;5072685;28;20102;-91
2021/06/24 07:34:16;;;;;;;36.95;10.68;;;;;;;29.02;46.06;98935.28;5074075;28;20034;-91
2021/06/24 07:36:42;;;;;;;33.22;10.00;;;;;;;29.10;46.02;98931.78;5072850;28;20400;-92
2021/06/24 07:39:08;;;;;;;37.78;9.95;;;;;;;29.14;46.74;98904.97;5074251;28;20048;-92
2021/06/24 07:41:35;;;;;;;31.92;10.00;;;;;;;29.15;46.63;98921.25;5074441;28;20068;-92
2021/06/24 07:44:01;;;;;;;31.98;9.73;;;;;;;29.38;46.65;98915.28;5073496;28;20060;-92
2021/06/24 07:46:27;;;;;;;37.78;10.43;;;;;;;29.02;46.45;98896.97;5071667;28;20071;-93
2021/06/24 07:48:53;;;;;;;38.35;11.02;;;;;;;29.18;46.57;98914.59;5069712;28;20040;-92
2021/06/24 07:51:19;;;;;;;44.22;10.75;;;;;;;29.28;46.42;98904.41;5073588;28;20037;-91
2021/06/24 07:53:44;;;;;;;37.15;10.45;;;;;;;29.49;45.18;98891.25;5073595;28;20037;-92
2021/06/24 07:56:11;;;;;;;33.05;10.57;;;;;;;29.55;44.33;98877.91;5073746;28;20051;-92
2021/06/24 07:58:38;;;;;;;35.17;11.00;;;;;;;29.60;45.25;98859.09;5073384;28;20109;-92
2021/06/24 08:01:05;;;;;;;35.90;10.10;;;;;;;30.03;45.30;98892.97;5071310;28;20051;-92
2021/06/24 08:03:31;;;;;;;39.72;10.10;;;;;;;30.08;43.50;98877.78;5073616;28;20429;-94
2021/06/24 08:05:57;;;;;;;36.30;9.85;;;;;;;30.05;43.36;98864.38;5065753;28;20363;-93
2021/06/24 08:08:23;;;;;;;35.63;8.90;;;;;;;30.27;42.43;98871.16;5073214;28;20094;-92
2021/06/24 08:10:49;;;;;;;37.67;9.68;;;;;;;29.82;43.48;98876.91;5073066;28;20048;-93
2021/06/24 08:13:15;;;;;;;37.15;9.88;;;;;;;29.94;42.17;98869.28;5073538;28;20037;-92
2021/06/24 08:15:42;;;;;;;41.88;10.27;;;;;;;30.18;41.89;98882.25;5070523;28;20033;-91
2021/06/24 08:18:08;;;;;;;30.85;8.57;;;;;;;30.45;42.27;98873.84;5073185;28;20528;-92
2021/06/24 08:20:34;;;;;;;39.97;9.88;;;;;;;30.66;41.42;98858.78;5072524;28;20033;-90
2021/06/24 08:23:00;;;;;;;31.52;8.18;;;;;;;30.81;39.08;98876.31;5072955;28;20040;-90
2021/06/24 08:25:26;;;;;;;40.40;9.43;;;;;;;31.16;39.54;98877.09;5072874;28;20521;-91
2021/06/24 08:27:52;;;;;;;31.85;8.50;;;;;;;31.25;39.25;98856.84;5072747;28;20044;-92
2021/06/24 08:30:19;;;;;;;32.97;9.32;;;;;;;31.46;39.19;98874.72;5069754;28;20028;-90
2021/06/24 08:32:47;;;;;;;39.23;8.90;;;;;;;31.47;38.84;98866.31;5072647;28;20062;-89
2021/06/24 08:35:13;;;;;;;35.47;9.02;;;;;;;31.30;37.88;98879.16;5072230;28;20066;-91
2021/06/24 08:37:40;;;;;;;39.72;9.13;;;;;;;31.44;38.69;98876.78;5071240;28;20071;-92
2021/06/24 08:40:08;;;;;;;35.23;9.10;;;;;;;31.52;38.18;98883.13;5073114;28;20059;-91
2021/06/24 08:42:34;;;;;;;32.67;8.20;;;;;;;31.55;39.15;98870.94;5072667;28;20303;-93
2021/06/24 08:45:03;;;;;;;42.13;9.10;;;;;;;31.68;38.02;98882.25;5070623;28;20129;-91
2021/06/24 08:47:30;;;;;;;45.58;9.60;;;;;;;31.72;37.80;98880.88;5069071;28;20037;-92
2021/06/24 08:49:58;;;;;;;40.17;8.98;;;;;;;31.59;37.30;98865.97;5072763;28;20367;-93
2021/06/24 08:52:25;;;;;;;40.33;8.50;;;;;;;31.76;36.41;98856.66;5072736;28;20119;-93
2021/06/24 08:54:51;;;;;;;35.95;8.05;;;;;;;31.92;36.13;98833.75;5072393;28;20048;-89
2021/06/24 08:57:19;;;;;;;39.30;9.15;;;;;;;32.19;35.77;98837.97;5072854;28;20036;-92
2021/06/24 08:59:45;;;;;;;45.95;9.02;;;;;;;31.81;35.99;98845.13;5072669;28;20127;-92
2021/06/24 09:02:13;;;;;;;45.42;8.70;;;;;;;32.01;35.80;98840.09;5072629;28;20036;-89
2021/06/24 09:04:44;;;;;;;44.30;9.15;;;;;;;32.13;35.58;98852.44;5072601;28;20111;-89
2021/06/24 09:07:13;;;;;;;38.95;9.10;;;;;;;30.95;37.29;98852.88;5073173;28;20044;-90
2021/06/24 09:09:49;;;;;;;32.92;8.45;;;;;;;31.42;37.81;98854.97;5072353;28;20051;-91
2021/06/24 09:12:15;;;;;;;33.65;8.73;;;;;;;31.89;36.36;98873.47;5067635;28;20103;-90
2021/06/24 09:14:45;;;;;;;39.50;9.52;;;;;;;31.93;35.38;98854.72;5072600;28;20046;-90
2021/06/24 09:17:33;;;;;;;35.30;8.20;;;;;;;31.67;36.21;98850.31;5070591;28;20432;-89
2021/06/24 09:19:58;;;;;;;44.17;8.43;;;;;;;31.93;35.46;98840.97;5068821;28;20048;-91
2021/06/24 09:22:26;;;;;;;38.20;9.02;;;;;;;31.86;36.56;98867.47;5072473;28;20033;-90
2021/06/24 09:24:52;;;;;;;45.03;8.63;;;;;;;31.84;36.16;98858.53;5072086;28;20040;-90
2021/06/24 09:27:26;;;;;;;39.10;8.45;;;;;;;32.06;37.14;98877.06;5073508;28;20067;-93
2021/06/24 09:30:02;;;;;;;43.83;8.90;;;;;;;31.46;36.51;98893.97;5071998;28;20068;-90
2021/06/24 09:32:31;;;;;;;35.65;8.63;;;;;;;31.84;36.43;98877.78;5076701;28;20048;-90
2021/06/24 09:34:58;;;;;;;41.17;9.32;;;;;;;32.12;35.89;98884.63;5077135;28;20037;-92
2021/06/24 09:37:26;;;;;;;39.25;8.43;;;;;;;32.44;35.64;98868.13;5076848;28;20820;-92
2021/06/24 09:39:54;;;;;;;35.38;8.13;;;;;;;32.53;36.03;98867.06;5077654;28;20123;-91
2021/06/24 09:42:21;;;;;;;44.30;8.88;;;;;;;32.61;35.20;98868.94;5069691;28;20561;-92
2021/06/24 09:44:48;;;;;;;41.15;9.27;;;;;;;32.30;35.31;98894.53;5077087;28;20051;-91
2021/06/24 09:47:17;;;;;;;42.50;8.70;;;;;;;32.45;35.54;98883.63;5077661;28;20045;-93
2021/06/24 09:49:54;;;;;;;50.38;9.45;;;;;;;32.71;34.89;98895.22;5077181;28;20047;-93
2021/06/24 09:52:20;;;;;;;46.50;8.70;;;;;;;32.72;35.36;98877.63;5076644;28;20451;-92
2021/06/24 09:54:50;;;;;;;41.55;8.90;;;;;;;32.74;35.43;98877.47;5076850;28;20409;-93
2021/06/24 09:57:24;;;;;;;40.17;8.73;;;;;;;32.72;35.33;98887.81;5076788;28;20382;-92
2021/06/24 09:59:50;;;;;;;46.53;9.48;;;;;;;32.43;34.97;98905.81;5076272;28;20045;-93
2021/06/24 10:02:18;;;;;;;41.42;8.65;;;;;;;32.12;35.75;98917.63;5074404;28;20853;-91
2021/06/24 10:04:45;;;;;;;44.50;8.90;;;;;;;31.96;35.31;98930.53;5076152;28;20033;-91
2021/06/24 10:07:13;;;;;;;67.53;9.03;;;;;;;31.95;34.67;98920.56;5076559;28;20036;-91
2021/06/24 10:09:40;;;;;;;37.75;8.32;;;;;;;31.90;34.61;98910.94;5077210;28;20312;-92
2021/06/24 10:12:12;;;;;;;36.47;7.90;;;;;;;31.82;34.73;98910.09;5076486;28;20513;-92
2021/06/24 10:14:40;;;;;;;38.97;7.97;;;;;;;31.50;34.37;98900.84;5076983;28;20040;-92
2021/06/24 10:17:07;;;;;;;37.97;7.43;;;;;;;31.26;34.27;98913.50;5076654;28;20486;-94
2021/06/24 10:19:34;;;;;;;42.47;7.80;;;;;;;30.87;34.92;98910.53;5077100;28;20118;-92
2021/06/24 10:22:04;;;;;;;32.63;7.60;;;;;;;30.73;36.25;98911.13;5075919;28;20293;-91
2021/06/24 10:24:33;;;;;;;42.10;8.30;;;;;;;30.16;37.76;98922.72;5076640;28;20498;-91
2021/06/24 10:27:00;;;;;;;39.72;8.07;;;;;;;29.79;38.03;98905.50;5076155;28;20036;-91
2021/06/24 10:29:40;;;;;;;42.60;7.93;;;;;;;29.60;38.74;98933.97;5076630;28;20056;-92
2021/06/24 10:32:22;;;;;;;39.85;9.00;;;;;;;29.30;39.85;98987.28;5071520;28;20532;-92
2021/06/24 10:34:49;;;;;;;41.55;9.07;;;;;;;29.27;39.77;98958.31;5072974;28;20032;-93
2021/06/24 10:37:21;;;;;;;40.40;8.13;;;;;;;29.21;39.02;98950.75;5076386;28;20082;-92
2021/06/24 10:39:47;;;;;;;48.30;8.27;;;;;;;29.25;38.76;98926.63;5075990;28;20039;-88
2021/06/24 10:42:15;;;;;;;39.55;8.27;;;;;;;29.25;38.01;98954.00;5075024;28;20053;-93
2021/06/24 10:45:08;;;;;;;36.70;7.50;;;;;;;29.21;37.23;98923.38;5072306;28;20037;-94
2021/06/24 10:47:37;;;;;;;40.20;7.80;;;;;;;29.30;37.75;98896.91;5069365;28;20045;-91
2021/06/24 10:50:33;;;;;;;38.17;8.25;;;;;;;29.40;37.36;98867.53;5073917;28;20076;-92
2021/06/24 10:53:36;;;;;;;38.97;8.63;;;;;;;29.64;37.13;98872.31;5076081;28;20163;-95
2021/06/24 10:56:19;;;;;;;40.90;8.07;;;;;;;30.04;37.27;98895.56;5075043;28;20560;-92
2021/06/24 10:58:45;;;;;;;46.20;8.30;;;;;;;30.58;36.84;98894.44;5074527;28;20398;-91
2021/06/24 11:01:13;;;;;;;44.55;8.70;;;;;;;31.09;36.00;98889.81;5074936;28;20182;-93
2021/06/24 11:06:50;;;;;;;47.05;8.52;;;;;;;31.34;36.10;98929.16;5124056;27;20362;-92
2021/06/24 11:09:18;;;;;;;40.65;8.60;;;;;;;31.48;35.55;98938.63;5092803;28;20169;-92
2021/06/24 11:11:45;;;;;;;38.75;7.93;;;;;;;31.90;35.18;98948.56;5091577;28;20440;-91
2021/06/24 11:14:14;;;;;;;44.72;9.35;;;;;;;31.70;35.04;98923.31;5091002;28;20037;-92
2021/06/24 11:16:40;;;;;;;44.97;8.43;;;;;;;31.47;35.04;98913.03;5090143;28;20056;-91
2021/06/24 11:19:08;;;;;;;34.25;7.55;;;;;;;31.46;35.98;98921.44;5092295;28;20040;-92
2021/06/24 11:21:51;;;;;;;38.35;8.43;;;;;;;32.00;35.30;98930.03;5091559;28;20059;-94
2021/06/24 11:24:26;;;;;;;37.47;8.50;;;;;;;31.86;35.98;98912.31;5092125;28;20036;-94
2021/06/24 11:26:54;;;;;;;44.33;8.65;;;;;;;32.05;36.21;98915.75;5092506;28;20038;-93
2021/06/24 11:32:31;;;;;;;40.55;9.23;;;;;;;32.14;36.86;98917.47;5131850;27;20374;-91